createdAt,value
2023-05-16T00:00:15.000Z,0
2023-05-16T00:01:31.371Z,0
2023-05-16T00:02:47.000Z,0
2023-05-16T00:04:03.000Z,0
2023-05-16T00:05:20.000Z,0
2023-05-16T00:06:35.000Z,0
2023-05-16T00:07:51.000Z,0
2023-05-16T00:09:07.000Z,0
2023-05-16T00:10:23.000Z,0
2023-05-16T00:11:39.000Z,0
2023-05-16T00:12:56.000Z,0
2023-05-16T00:14:12.000Z,0
2023-05-16T00:15:28.000Z,0
2023-05-16T00:16:44.000Z,0
2023-05-16T00:18:00.000Z,0
2023-05-16T00:19:17.000Z,0
2023-05-16T00:20:33.000Z,0
2023-05-16T00:21:49.000Z,0
2023-05-16T00:23:04.000Z,0
2023-05-16T00:24:20.000Z,0
2023-05-16T00:25:37.000Z,0
2023-05-16T00:26:53.000Z,0
2023-05-16T00:28:09.000Z,0
2023-05-16T00:29:25.000Z,0
2023-05-16T00:30:41.000Z,0
2023-05-16T00:31:58.000Z,0
2023-05-16T00:33:14.000Z,0
2023-05-16T00:34:30.000Z,0
2023-05-16T00:35:46.000Z,0
2023-05-16T00:37:02.000Z,0
2023-05-16T00:38:19.000Z,0
2023-05-16T00:39:34.220Z,0
2023-05-16T00:40:50.000Z,0
2023-05-16T00:42:06.000Z,0
2023-05-16T00:43:22.000Z,0
2023-05-16T00:44:39.000Z,0
2023-05-16T00:45:55.000Z,0
2023-05-16T00:47:10.000Z,0
2023-05-16T00:48:26.000Z,0
2023-05-16T00:49:42.783Z,0
2023-05-16T00:50:59.000Z,0
2023-05-16T00:52:15.000Z,0
2023-05-16T00:53:31.000Z,0
2023-05-16T00:54:47.000Z,0
2023-05-16T00:56:03.000Z,0
2023-05-16T00:57:20.000Z,0
2023-05-16T00:58:36.000Z,0
2023-05-16T00:59:52.000Z,0
2023-05-16T01:01:08.000Z,0
2023-05-16T01:02:24.000Z,0
2023-05-16T01:03:39.000Z,0
2023-05-16T01:04:56.000Z,0
2023-05-16T01:06:12.000Z,0
2023-05-16T01:07:28.000Z,0
2023-05-16T01:08:44.000Z,0
2023-05-16T01:10:00.000Z,0
2023-05-16T01:11:17.000Z,0
2023-05-16T01:12:33.000Z,0
2023-05-16T01:13:49.000Z,0
2023-05-16T01:15:05.000Z,0
2023-05-16T01:16:21.000Z,0
2023-05-16T01:17:38.000Z,0
2023-05-16T01:18:54.000Z,0
2023-05-16T01:20:09.000Z,0
2023-05-16T01:21:25.000Z,0
2023-05-16T01:22:41.000Z,0
2023-05-16T01:23:58.000Z,0
2023-05-16T01:25:14.000Z,0
2023-05-16T01:26:30.000Z,0
2023-05-16T01:27:46.000Z,0
2023-05-16T01:29:02.000Z,0
2023-05-16T01:30:19.014Z,0
2023-05-16T01:31:35.000Z,0
2023-05-16T01:32:51.000Z,0
2023-05-16T01:34:07.000Z,0
2023-05-16T01:35:23.000Z,0
2023-05-16T01:36:39.000Z,0
2023-05-16T01:37:55.000Z,0
2023-05-16T01:39:11.000Z,0
2023-05-16T01:40:27.000Z,0
2023-05-16T01:41:43.000Z,0
2023-05-16T01:43:00.000Z,0
2023-05-16T01:44:16.000Z,0
2023-05-16T01:45:32.000Z,0
2023-05-16T01:46:48.000Z,0
2023-05-16T01:48:04.000Z,0
2023-05-16T01:49:20.000Z,0
2023-05-16T01:50:37.000Z,0
2023-05-16T01:51:53.000Z,0
2023-05-16T01:53:08.000Z,0
2023-05-16T01:54:24.000Z,0
2023-05-16T01:55:40.000Z,0
2023-05-16T01:56:57.000Z,0
2023-05-16T01:58:13.000Z,0
2023-05-16T01:59:29.000Z,0
2023-05-16T02:00:45.000Z,0
2023-05-16T02:02:01.000Z,0
2023-05-16T02:03:18.000Z,0
2023-05-16T02:04:34.000Z,0
2023-05-16T02:05:50.000Z,0
2023-05-16T02:07:06.000Z,0
2023-05-16T02:08:22.000Z,0
2023-05-16T02:09:38.000Z,0
2023-05-16T02:10:54.000Z,0
2023-05-16T02:12:10.000Z,0
2023-05-16T02:13:26.000Z,0
2023-05-16T02:14:42.000Z,0
2023-05-16T02:15:59.000Z,0
2023-05-16T02:17:15.000Z,0
2023-05-16T02:18:31.000Z,0
2023-05-16T02:19:47.000Z,0
2023-05-16T02:21:03.000Z,0
2023-05-16T02:22:20.000Z,0
2023-05-16T02:23:36.000Z,0
2023-05-16T02:24:52.000Z,0
2023-05-16T02:26:07.000Z,0
2023-05-16T02:27:23.000Z,0
2023-05-16T02:28:40.000Z,0
2023-05-16T02:29:56.000Z,0
2023-05-16T02:31:12.000Z,0
2023-05-16T02:32:28.000Z,0
2023-05-16T02:33:44.000Z,0
2023-05-16T02:35:00.000Z,0
2023-05-16T02:36:17.000Z,0
2023-05-16T02:37:33.000Z,0
2023-05-16T02:38:49.000Z,0
2023-05-16T02:40:05.000Z,0
2023-05-16T02:41:21.000Z,0
2023-05-16T02:42:37.000Z,0
2023-05-16T02:43:53.000Z,0
2023-05-16T02:45:09.000Z,0
2023-05-16T02:46:25.688Z,0
2023-05-16T02:47:41.000Z,0
2023-05-16T02:48:58.000Z,0
2023-05-16T02:50:14.000Z,0
2023-05-16T02:51:30.000Z,0
2023-05-16T02:52:46.000Z,0
2023-05-16T02:54:02.000Z,0
2023-05-16T02:55:19.000Z,0
2023-05-16T02:56:35.000Z,0
2023-05-16T02:57:51.000Z,0
2023-05-16T02:59:06.000Z,0
2023-05-16T03:00:22.000Z,0
2023-05-16T03:01:39.000Z,0
2023-05-16T03:02:55.000Z,0
2023-05-16T03:04:11.000Z,0
2023-05-16T03:05:27.000Z,4
2023-05-16T03:06:43.000Z,4
2023-05-16T03:08:00.000Z,4
2023-05-16T03:09:16.000Z,4
2023-05-16T03:10:32.000Z,4
2023-05-16T03:11:48.000Z,4
2023-05-16T03:13:04.000Z,8
2023-05-16T03:14:21.000Z,4
2023-05-16T03:15:36.000Z,8
2023-05-16T03:16:52.000Z,8
2023-05-16T03:18:08.000Z,12
2023-05-16T03:19:24.000Z,12
2023-05-16T03:20:40.000Z,12
2023-05-16T03:21:57.000Z,16
2023-05-16T03:23:13.000Z,20
2023-05-16T03:24:29.000Z,24
2023-05-16T03:25:45.000Z,28
2023-05-16T03:27:01.000Z,36
2023-05-16T03:28:18.000Z,36
2023-05-16T03:29:34.000Z,44
2023-05-16T03:30:50.000Z,52
2023-05-16T03:32:05.000Z,60
2023-05-16T03:33:21.000Z,68
2023-05-16T03:34:38.000Z,76
2023-05-16T03:35:54.000Z,88
2023-05-16T03:37:10.000Z,96
2023-05-16T03:38:26.000Z,104
2023-05-16T03:39:42.000Z,116
2023-05-16T03:40:59.000Z,140
2023-05-16T03:42:15.000Z,156
2023-05-16T03:43:31.000Z,180
2023-05-16T03:44:47.000Z,204
2023-05-16T03:46:03.000Z,228
2023-05-16T03:47:20.000Z,256
2023-05-16T03:48:35.000Z,280
2023-05-16T03:49:51.000Z,312
2023-05-16T03:51:07.000Z,340
2023-05-16T03:52:23.000Z,376
2023-05-16T03:53:40.000Z,408
2023-05-16T03:54:56.000Z,444
2023-05-16T03:56:12.000Z,480
2023-05-16T03:57:28.000Z,520
2023-05-16T03:58:44.000Z,564
2023-05-16T04:00:01.000Z,616
2023-05-16T04:01:17.000Z,680
2023-05-16T04:02:33.000Z,744
2023-05-16T04:03:49.000Z,804
2023-05-16T04:05:04.000Z,852
2023-05-16T04:06:20.000Z,908
2023-05-16T04:07:37.000Z,956
2023-05-16T04:08:53.000Z,996
2023-05-16T04:10:09.000Z,1044
2023-05-16T04:11:25.000Z,1096
2023-05-16T04:12:41.000Z,1152
2023-05-16T04:13:58.000Z,1200
2023-05-16T04:15:14.000Z,1260
2023-05-16T04:16:30.000Z,1320
2023-05-16T04:17:46.000Z,1396
2023-05-16T04:19:02.000Z,1464
2023-05-16T04:20:19.000Z,1532
2023-05-16T04:21:34.000Z,1600
2023-05-16T04:22:50.000Z,1680
2023-05-16T04:24:06.000Z,1764
2023-05-16T04:25:22.000Z,1840
2023-05-16T04:26:39.000Z,1908
2023-05-16T04:27:55.240Z,1984
2023-05-16T04:29:11.000Z,2084
2023-05-16T04:30:27.000Z,2236
2023-05-16T04:31:43.000Z,2388
2023-05-16T04:33:00.000Z,2452
2023-05-16T04:34:16.000Z,2468
2023-05-16T04:35:32.000Z,2552
2023-05-16T04:36:48.000Z,2692
2023-05-16T04:38:03.000Z,2880
2023-05-16T04:39:20.000Z,3112
2023-05-16T04:40:36.000Z,3240
2023-05-16T04:41:52.000Z,3332
2023-05-16T04:43:08.000Z,3420
2023-05-16T04:44:24.000Z,3456
2023-05-16T04:45:41.000Z,3500
2023-05-16T04:46:57.000Z,3712
2023-05-16T04:48:13.000Z,3776
2023-05-16T04:49:29.000Z,3832
2023-05-16T04:50:45.000Z,3924
2023-05-16T04:52:01.000Z,4000
2023-05-16T04:53:18.128Z,4072
2023-05-16T04:54:33.000Z,4204
2023-05-16T04:55:49.000Z,4300
2023-05-16T04:57:05.000Z,4392
2023-05-16T04:58:21.000Z,4476
2023-05-16T04:59:38.000Z,4568
2023-05-16T05:00:54.000Z,4656
2023-05-16T05:02:09.000Z,4736
2023-05-16T05:03:25.000Z,4804
2023-05-16T05:04:41.000Z,4896
2023-05-16T05:05:58.000Z,4988
2023-05-16T05:07:14.000Z,5064
2023-05-16T05:08:30.000Z,5168
2023-05-16T05:09:46.000Z,5256
2023-05-16T05:11:02.000Z,5336
2023-05-16T05:12:19.000Z,5412
2023-05-16T05:13:35.000Z,5496
2023-05-16T05:14:51.000Z,5556
2023-05-16T05:16:07.000Z,5660
2023-05-16T05:17:23.000Z,5776
2023-05-16T05:18:39.034Z,5860
2023-05-16T05:19:55.000Z,5956
2023-05-16T05:21:11.000Z,6056
2023-05-16T05:22:27.000Z,6136
2023-05-16T05:23:43.000Z,6280
2023-05-16T05:25:00.000Z,6424
2023-05-16T05:26:16.000Z,6552
2023-05-16T05:27:32.000Z,6696
2023-05-16T05:28:48.000Z,6844
2023-05-16T05:30:04.000Z,6964
2023-05-16T05:31:20.982Z,7196
2023-05-16T05:32:37.000Z,7268
2023-05-16T05:33:53.000Z,7368
2023-05-16T05:35:08.000Z,7596
2023-05-16T05:36:24.000Z,7764
2023-05-16T05:37:41.000Z,7984
2023-05-16T05:38:57.000Z,7572
2023-05-16T05:40:13.000Z,8308
2023-05-16T05:41:29.000Z,8652
2023-05-16T05:42:45.000Z,8960
2023-05-16T05:44:01.000Z,9636
2023-05-16T05:45:18.000Z,9688
2023-05-16T05:46:34.310Z,9896
2023-05-16T05:47:50.498Z,10348
2023-05-16T05:49:06.000Z,10944
2023-05-16T05:50:22.000Z,11568
2023-05-16T05:51:38.000Z,12976
2023-05-16T05:52:54.000Z,36832
2023-05-16T05:54:10.000Z,73088
2023-05-16T05:55:26.000Z,78816
2023-05-16T05:56:42.000Z,80096
2023-05-16T05:57:59.000Z,81728
2023-05-16T05:59:15.000Z,21472
2023-05-16T06:00:31.000Z,46368
2023-05-16T06:01:47.000Z,79936
2023-05-16T06:03:03.000Z,73248
2023-05-16T06:04:20.000Z,81632
2023-05-16T06:05:36.000Z,83872
2023-05-16T06:06:52.000Z,88480
2023-05-16T06:08:07.000Z,29408
2023-05-16T06:09:23.831Z,43328
2023-05-16T06:10:40.000Z,84960
2023-05-16T06:11:56.000Z,85536
2023-05-16T06:13:12.000Z,87232
2023-05-16T06:14:28.000Z,27584
2023-05-16T06:15:44.000Z,78208
2023-05-16T06:17:00.990Z,82752
2023-05-16T06:18:17.000Z,68032
2023-05-16T06:19:33.000Z,80384
2023-05-16T06:20:49.000Z,89952
2023-05-16T06:22:05.000Z,92800
2023-05-16T06:23:22.000Z,16232
2023-05-16T06:24:37.000Z,49120
2023-05-16T06:25:53.000Z,29760
2023-05-16T06:27:09.000Z,18528
2023-05-16T06:28:25.000Z,87712
2023-05-16T06:29:42.000Z,12656
2023-05-16T06:30:58.000Z,95168
2023-05-16T06:32:14.000Z,16016
2023-05-16T06:33:30.000Z,94592
2023-05-16T06:34:46.725Z,45952
2023-05-16T06:36:02.000Z,100320
2023-05-16T06:37:19.000Z,22784
2023-05-16T06:38:35.000Z,96960
2023-05-16T06:39:51.000Z,98912
2023-05-16T06:41:06.000Z,86816
2023-05-16T06:42:22.000Z,100224
2023-05-16T06:43:39.000Z,100512
2023-05-16T06:44:55.000Z,97632
2023-05-16T06:46:11.501Z,101280
2023-05-16T06:47:27.687Z,98464
2023-05-16T06:48:43.000Z,12124
2023-05-16T06:50:00.000Z,102528
2023-05-16T06:51:16.000Z,22080
2023-05-16T06:52:32.000Z,11132
2023-05-16T06:53:48.000Z,94688
2023-05-16T06:55:04.000Z,46080
2023-05-16T06:56:21.000Z,61344
2023-05-16T06:57:36.000Z,89952
2023-05-16T06:58:52.000Z,95456
2023-05-16T07:00:08.639Z,13832
2023-05-16T07:01:24.000Z,102240
2023-05-16T07:02:41.000Z,98080
2023-05-16T07:03:57.000Z,96736
2023-05-16T07:05:13.000Z,16264
2023-05-16T07:06:29.000Z,95456
2023-05-16T07:07:45.000Z,16116
2023-05-16T07:09:02.000Z,25920
2023-05-16T07:10:18.000Z,93120
2023-05-16T07:11:34.404Z,102848
2023-05-16T07:12:50.000Z,86912
2023-05-16T07:14:05.000Z,98880
2023-05-16T07:15:22.000Z,95968
2023-05-16T07:16:38.000Z,93728
2023-05-16T07:17:54.000Z,94528
2023-05-16T07:19:10.000Z,98304
2023-05-16T07:20:26.000Z,99488
2023-05-16T07:21:42.983Z,100704
2023-05-16T07:22:59.000Z,100064
2023-05-16T07:24:15.000Z,54688
2023-05-16T07:25:31.000Z,100384
2023-05-16T07:26:47.000Z,99488
2023-05-16T07:28:04.000Z,23456
2023-05-16T07:29:20.000Z,99168
2023-05-16T07:30:35.000Z,98336
2023-05-16T07:31:51.000Z,11500
2023-05-16T07:33:07.000Z,99072
2023-05-16T07:34:24.000Z,15012
2023-05-16T07:35:40.000Z,102560
2023-05-16T07:36:56.000Z,103552
2023-05-16T07:38:12.000Z,14300
2023-05-16T07:39:28.000Z,12536
2023-05-16T07:40:44.000Z,10996
2023-05-16T07:42:01.000Z,17376
2023-05-16T07:43:17.000Z,9456
2023-05-16T07:44:33.000Z,9180
2023-05-16T07:45:49.000Z,62496
2023-05-16T07:47:04.000Z,9224
2023-05-16T07:48:21.000Z,36288
2023-05-16T07:49:37.000Z,98176
2023-05-16T07:50:53.000Z,97312
2023-05-16T07:52:09.000Z,97408
2023-05-16T07:53:25.000Z,11156
2023-05-16T07:54:42.000Z,98336
2023-05-16T07:55:58.000Z,93408
2023-05-16T07:57:14.000Z,95904
2023-05-16T07:58:30.000Z,95648
2023-05-16T07:59:46.000Z,98912
2023-05-16T08:01:03.000Z,100800
2023-05-16T08:02:19.000Z,100928
2023-05-16T08:03:34.454Z,102272
2023-05-16T08:04:50.000Z,97280
2023-05-16T08:06:06.000Z,100416
2023-05-16T08:07:23.000Z,13696
2023-05-16T08:08:39.000Z,59424
2023-05-16T08:09:55.000Z,24992
2023-05-16T08:11:11.000Z,11788
2023-05-16T08:12:27.000Z,11216
2023-05-16T08:13:44.000Z,10216
2023-05-16T08:15:00.000Z,9056
2023-05-16T08:16:16.000Z,10732
2023-05-16T08:17:32.000Z,18048
2023-05-16T08:18:48.000Z,9468
2023-05-16T08:20:04.000Z,10164
2023-05-16T08:21:20.000Z,59200
2023-05-16T08:22:36.000Z,19904
2023-05-16T08:23:52.000Z,15400
2023-05-16T08:25:08.000Z,15936
2023-05-16T08:26:25.000Z,15792
2023-05-16T08:27:41.000Z,19808
2023-05-16T08:28:57.000Z,15696
2023-05-16T08:30:13.000Z,11708
2023-05-16T08:31:29.000Z,10548
2023-05-16T08:32:46.000Z,12040
2023-05-16T08:34:02.000Z,14968
2023-05-16T08:35:18.000Z,15936
2023-05-16T08:36:33.000Z,12740
2023-05-16T08:37:49.000Z,13004
2023-05-16T08:39:06.000Z,15376
2023-05-16T08:40:22.000Z,15444
2023-05-16T08:41:38.000Z,12108
2023-05-16T08:42:54.000Z,17004
2023-05-16T08:44:10.000Z,14216
2023-05-16T08:45:27.000Z,11188
2023-05-16T08:46:43.000Z,13156
2023-05-16T08:47:59.000Z,11516
2023-05-16T08:49:15.000Z,13312
2023-05-16T08:50:31.000Z,13812
2023-05-16T08:51:47.000Z,13452
2023-05-16T08:53:03.000Z,14220
2023-05-16T08:54:19.000Z,13916
2023-05-16T08:55:35.000Z,12884
2023-05-16T08:56:51.000Z,12916
2023-05-16T08:58:07.000Z,12652
2023-05-16T08:59:24.000Z,12528
2023-05-16T09:00:40.000Z,12816
2023-05-16T09:01:56.000Z,12980
2023-05-16T09:03:12.000Z,12856
2023-05-16T09:04:28.000Z,13060
2023-05-16T09:05:45.000Z,14392
2023-05-16T09:07:01.000Z,16732
2023-05-16T09:08:17.000Z,15528
2023-05-16T09:09:32.000Z,11120
2023-05-16T09:10:48.000Z,8460
2023-05-16T09:12:05.000Z,7476
2023-05-16T09:13:21.000Z,8332
2023-05-16T09:14:37.000Z,10488
2023-05-16T09:15:53.000Z,11748
2023-05-16T09:17:08.000Z,11900
2023-05-16T09:18:25.000Z,11196
2023-05-16T09:19:41.000Z,10912
2023-05-16T09:20:57.000Z,10720
2023-05-16T09:22:13.000Z,10600
2023-05-16T09:23:29.000Z,10564
2023-05-16T09:24:46.000Z,10640
2023-05-16T09:26:02.000Z,10720
2023-05-16T09:27:18.000Z,8072
2023-05-16T09:28:34.000Z,11536
2023-05-16T09:29:50.000Z,12520
2023-05-16T09:31:07.000Z,12424
2023-05-16T09:32:23.000Z,10736
2023-05-16T09:33:38.000Z,11920
2023-05-16T09:34:54.000Z,11196
2023-05-16T09:36:10.000Z,10840
2023-05-16T09:37:27.000Z,10804
2023-05-16T09:38:43.000Z,13780
2023-05-16T09:39:59.000Z,13156
2023-05-16T09:41:15.000Z,13036
2023-05-16T09:42:31.000Z,12520
2023-05-16T09:43:48.000Z,12612
2023-05-16T09:45:04.000Z,13056
2023-05-16T09:46:20.000Z,12260
2023-05-16T09:47:36.000Z,11868
2023-05-16T09:48:52.000Z,10612
2023-05-16T09:50:08.000Z,8592
2023-05-16T09:51:24.000Z,10900
2023-05-16T09:52:40.000Z,11460
2023-05-16T09:53:56.000Z,11448
2023-05-16T09:55:12.000Z,8516
2023-05-16T09:56:28.950Z,8312
2023-05-16T09:57:45.000Z,11336
2023-05-16T09:59:01.000Z,8588
2023-05-16T10:00:17.000Z,7800
2023-05-16T10:01:33.000Z,10332
2023-05-16T10:02:49.000Z,10356
2023-05-16T10:04:06.000Z,10520
2023-05-16T10:05:22.000Z,10504
2023-05-16T10:06:37.000Z,10612
2023-05-16T10:07:53.000Z,10864
2023-05-16T10:09:09.000Z,10188
2023-05-16T10:10:26.099Z,8772
2023-05-16T10:11:42.000Z,10284
2023-05-16T10:12:58.000Z,9872
2023-05-16T10:14:14.000Z,11600
2023-05-16T10:15:30.000Z,8960
2023-05-16T10:16:47.000Z,7996
2023-05-16T10:18:03.000Z,7708
2023-05-16T10:19:19.000Z,7588
2023-05-16T10:20:35.000Z,7392
2023-05-16T10:21:51.000Z,6876
2023-05-16T10:23:07.065Z,6764
2023-05-16T10:24:23.000Z,7844
2023-05-16T10:25:39.000Z,7240
2023-05-16T10:26:55.000Z,8392
2023-05-16T10:28:11.000Z,9012
2023-05-16T10:29:28.000Z,10472
2023-05-16T10:30:44.000Z,9832
2023-05-16T10:32:00.000Z,11756
2023-05-16T10:33:16.000Z,10940
2023-05-16T10:34:32.000Z,10456
2023-05-16T10:35:49.000Z,10056
2023-05-16T10:37:05.000Z,10508
2023-05-16T10:38:21.000Z,8576
2023-05-16T10:39:36.000Z,7772
2023-05-16T10:40:52.000Z,7120
2023-05-16T10:42:09.000Z,6596
2023-05-16T10:43:25.000Z,7752
2023-05-16T10:44:41.000Z,6484
2023-05-16T10:45:57.608Z,8872
2023-05-16T10:47:13.000Z,8268
2023-05-16T10:48:30.000Z,8496
2023-05-16T10:49:46.000Z,8120
2023-05-16T10:51:02.000Z,7824
2023-05-16T10:52:18.000Z,6236
2023-05-16T10:53:34.000Z,7684
2023-05-16T10:54:51.000Z,7796
2023-05-16T10:56:06.000Z,7600
2023-05-16T10:57:22.000Z,5900
2023-05-16T10:58:38.000Z,6048
2023-05-16T10:59:54.000Z,7192
2023-05-16T11:01:11.000Z,6428
2023-05-16T11:02:27.000Z,6688
2023-05-16T11:03:43.000Z,6508
2023-05-16T11:04:59.000Z,6268
2023-05-16T11:06:15.000Z,7672
2023-05-16T11:07:32.000Z,7980
2023-05-16T11:08:48.000Z,7796
2023-05-16T11:10:04.000Z,7780
2023-05-16T11:11:20.000Z,7976
2023-05-16T11:12:35.000Z,8056
2023-05-16T11:13:52.000Z,7752
2023-05-16T11:15:08.000Z,6304
2023-05-16T11:16:24.000Z,6416
2023-05-16T11:17:40.000Z,6796
2023-05-16T11:18:56.000Z,7692
2023-05-16T11:20:12.000Z,8428
2023-05-16T11:21:29.000Z,7696
2023-05-16T11:22:45.000Z,7564
2023-05-16T11:24:01.000Z,7796
2023-05-16T11:25:17.000Z,7572
2023-05-16T11:26:33.000Z,7508
2023-05-16T11:27:50.000Z,7176
2023-05-16T11:29:05.000Z,6504
2023-05-16T11:30:21.000Z,5848
2023-05-16T11:31:37.000Z,5696
2023-05-16T11:32:53.000Z,5604
2023-05-16T11:34:10.000Z,5384
2023-05-16T11:35:26.000Z,5596
2023-05-16T11:36:42.000Z,5888
2023-05-16T11:37:58.000Z,5792
2023-05-16T11:39:14.845Z,5452
2023-05-16T11:40:31.000Z,5016
2023-05-16T11:41:47.000Z,4568
2023-05-16T11:43:03.000Z,4600
2023-05-16T11:44:19.000Z,5672
2023-05-16T11:45:34.000Z,4912
2023-05-16T11:46:51.000Z,5148
2023-05-16T11:48:07.000Z,5624
2023-05-16T11:49:23.000Z,6056
2023-05-16T11:50:39.000Z,6500
2023-05-16T11:51:55.000Z,6604
2023-05-16T11:53:12.000Z,7176
2023-05-16T11:54:28.000Z,7816
2023-05-16T11:55:44.000Z,8556
2023-05-16T11:57:00.000Z,8828
2023-05-16T11:58:16.000Z,8656
2023-05-16T11:59:33.000Z,8380
2023-05-16T12:00:49.000Z,8532
2023-05-16T12:02:04.000Z,8320
2023-05-16T12:03:20.000Z,8328
2023-05-16T12:04:36.000Z,8228
2023-05-16T12:05:53.000Z,7572
2023-05-16T12:07:09.000Z,6864
2023-05-16T12:08:25.000Z,6308
2023-05-16T12:09:41.000Z,5896
2023-05-16T12:10:57.000Z,5644
2023-05-16T12:12:14.000Z,5512
2023-05-16T12:13:30.000Z,5424
2023-05-16T12:14:46.000Z,5324
2023-05-16T12:16:02.000Z,4240
2023-05-16T12:17:18.000Z,5224
2023-05-16T12:18:34.000Z,5116
2023-05-16T12:19:50.000Z,4884
2023-05-16T12:21:06.000Z,5068
2023-05-16T12:22:22.000Z,5144
2023-05-16T12:23:38.000Z,5252
2023-05-16T12:24:55.000Z,5140
2023-05-16T12:26:11.000Z,5056
2023-05-16T12:27:27.000Z,5024
2023-05-16T12:28:43.000Z,5048
2023-05-16T12:29:59.701Z,5148
2023-05-16T12:31:15.000Z,5728
2023-05-16T12:32:32.000Z,6508
2023-05-16T12:33:48.000Z,6708
2023-05-16T12:35:03.000Z,7732
2023-05-16T12:36:19.000Z,6748
2023-05-16T12:37:35.000Z,6476
2023-05-16T12:38:52.000Z,6104
2023-05-16T12:40:08.000Z,5736
2023-05-16T12:41:24.000Z,5556
2023-05-16T12:42:40.000Z,5808
2023-05-16T12:43:56.000Z,6092
2023-05-16T12:45:13.000Z,5768
2023-05-16T12:46:29.000Z,5000
2023-05-16T12:47:45.000Z,4512
2023-05-16T12:49:01.000Z,4432
2023-05-16T12:50:17.000Z,4864
2023-05-16T12:51:33.000Z,5396
2023-05-16T12:52:49.000Z,5768
2023-05-16T12:54:05.000Z,6348
2023-05-16T12:55:21.000Z,6564
2023-05-16T12:56:37.851Z,6504
2023-05-16T12:57:54.042Z,6292
2023-05-16T12:59:10.000Z,6132
2023-05-16T13:00:26.000Z,6044
2023-05-16T13:01:42.000Z,6056
2023-05-16T13:02:58.000Z,5904
2023-05-16T13:04:15.000Z,5740
2023-05-16T13:05:31.000Z,6164
2023-05-16T13:06:47.000Z,6828
2023-05-16T13:08:02.629Z,6528
2023-05-16T13:09:18.000Z,6272
2023-05-16T13:10:35.000Z,6092
2023-05-16T13:11:51.000Z,6004
2023-05-16T13:13:07.000Z,6020
2023-05-16T13:14:23.000Z,6260
2023-05-16T13:15:39.000Z,6572
2023-05-16T13:16:56.000Z,6752
2023-05-16T13:18:12.000Z,5688
2023-05-16T13:19:28.000Z,5760
2023-05-16T13:20:44.000Z,6060
2023-05-16T13:22:00.000Z,7092
2023-05-16T13:23:17.000Z,6768
2023-05-16T13:24:32.000Z,6616
2023-05-16T13:25:48.000Z,6872
2023-05-16T13:27:04.000Z,6844
2023-05-16T13:28:20.000Z,6784
2023-05-16T13:29:37.000Z,7028
2023-05-16T13:30:53.000Z,6944
2023-05-16T13:32:08.000Z,6448
2023-05-16T13:33:24.578Z,6076
2023-05-16T13:34:40.000Z,5880
2023-05-16T13:35:57.000Z,5792
2023-05-16T13:37:13.000Z,5184
2023-05-16T13:38:29.000Z,4096
2023-05-16T13:39:45.000Z,3748
2023-05-16T13:41:01.000Z,3712
2023-05-16T13:42:18.000Z,3644
2023-05-16T13:43:34.000Z,3640
2023-05-16T13:44:50.000Z,3668
2023-05-16T13:46:06.000Z,3644
2023-05-16T13:47:22.000Z,3636
2023-05-16T13:48:38.000Z,3824
2023-05-16T13:49:54.000Z,3964
2023-05-16T13:51:10.000Z,4072
2023-05-16T13:52:26.000Z,4376
2023-05-16T13:53:42.000Z,6388
2023-05-16T13:54:58.000Z,6536
2023-05-16T13:56:15.108Z,6604
2023-05-16T13:57:31.000Z,6792
2023-05-16T13:58:47.000Z,6780
2023-05-16T14:00:03.000Z,6784
2023-05-16T14:01:19.000Z,7044
2023-05-16T14:02:36.000Z,7224
2023-05-16T14:03:52.000Z,7372
2023-05-16T14:05:07.483Z,7324
2023-05-16T14:06:23.000Z,7224
2023-05-16T14:07:39.000Z,4900
2023-05-16T14:08:56.000Z,4456
2023-05-16T14:10:12.000Z,4224
2023-05-16T14:11:28.000Z,4204
2023-05-16T14:12:44.000Z,4772
2023-05-16T14:14:00.000Z,5148
2023-05-16T14:15:17.000Z,5148
2023-05-16T14:16:33.000Z,4920
2023-05-16T14:17:49.000Z,4836
2023-05-16T14:19:05.000Z,4228
2023-05-16T14:20:21.000Z,4176
2023-05-16T14:21:37.000Z,4248
2023-05-16T14:22:53.000Z,4640
2023-05-16T14:24:09.448Z,4772
2023-05-16T14:25:25.000Z,5068
2023-05-16T14:26:41.000Z,5404
2023-05-16T14:27:58.000Z,5708
2023-05-16T14:29:14.000Z,5736
2023-05-16T14:30:30.000Z,5396
2023-05-16T14:31:46.000Z,5208
2023-05-16T14:33:02.000Z,5100
2023-05-16T14:34:19.000Z,5000
2023-05-16T14:35:35.000Z,5100
2023-05-16T14:36:51.000Z,6216
2023-05-16T14:38:06.000Z,5488
2023-05-16T14:39:22.000Z,5072
2023-05-16T14:40:39.000Z,5032
2023-05-16T14:41:55.000Z,5264
2023-05-16T14:43:11.000Z,6028
2023-05-16T14:44:27.000Z,6132
2023-05-16T14:45:43.000Z,5860
2023-05-16T14:47:00.000Z,5592
2023-05-16T14:48:16.000Z,5404
2023-05-16T14:49:32.000Z,4612
2023-05-16T14:50:48.000Z,4424
2023-05-16T14:52:04.000Z,4568
2023-05-16T14:53:21.000Z,4924
2023-05-16T14:54:36.000Z,5368
2023-05-16T14:55:52.000Z,5968
2023-05-16T14:57:08.000Z,7288
2023-05-16T14:58:24.000Z,6180
2023-05-16T14:59:41.000Z,7440
2023-05-16T15:00:57.000Z,7188
2023-05-16T15:02:13.000Z,4944
2023-05-16T15:03:29.000Z,5720
2023-05-16T15:04:45.000Z,4564
2023-05-16T15:06:02.000Z,5396
2023-05-16T15:07:18.000Z,6080
2023-05-16T15:08:34.000Z,4092
2023-05-16T15:09:50.000Z,5176
2023-05-16T15:11:05.000Z,4412
2023-05-16T15:12:22.000Z,3940
2023-05-16T15:13:38.000Z,3616
2023-05-16T15:14:54.000Z,3612
2023-05-16T15:16:10.000Z,3728
2023-05-16T15:17:26.000Z,4176
2023-05-16T15:18:42.000Z,4348
2023-05-16T15:19:59.000Z,6080
2023-05-16T15:21:15.285Z,6000
2023-05-16T15:22:31.000Z,5640
2023-05-16T15:23:47.000Z,5724
2023-05-16T15:25:03.000Z,6768
2023-05-16T15:26:20.074Z,6168
2023-05-16T15:27:35.281Z,4888
2023-05-16T15:28:51.000Z,6340
2023-05-16T15:30:07.000Z,7076
2023-05-16T15:31:23.000Z,7012
2023-05-16T15:32:40.000Z,6876
2023-05-16T15:33:56.000Z,6800
2023-05-16T15:35:12.000Z,5084
2023-05-16T15:36:28.000Z,5496
2023-05-16T15:37:44.000Z,4908
2023-05-16T15:39:01.000Z,4412
2023-05-16T15:40:17.000Z,4148
2023-05-16T15:41:33.000Z,3888
2023-05-16T15:42:49.000Z,3652
2023-05-16T15:44:04.000Z,3452
2023-05-16T15:45:21.000Z,3268
2023-05-16T15:46:37.000Z,3192
2023-05-16T15:47:53.000Z,3140
2023-05-16T15:49:09.000Z,3208
2023-05-16T15:50:25.000Z,3320
2023-05-16T15:51:42.000Z,3424
2023-05-16T15:52:58.000Z,3528
2023-05-16T15:54:14.000Z,3576
2023-05-16T15:55:30.000Z,3580
2023-05-16T15:56:46.000Z,3580
2023-05-16T15:58:03.000Z,3564
2023-05-16T15:59:19.000Z,3528
2023-05-16T16:00:34.000Z,3428
2023-05-16T16:01:50.000Z,3344
2023-05-16T16:03:06.000Z,3320
2023-05-16T16:04:23.000Z,3276
2023-05-16T16:05:39.000Z,3216
2023-05-16T16:06:55.000Z,3208
2023-05-16T16:08:11.000Z,3212
2023-05-16T16:09:27.000Z,3180
2023-05-16T16:10:44.000Z,3148
2023-05-16T16:12:00.000Z,3076
2023-05-16T16:13:16.000Z,3000
2023-05-16T16:14:32.000Z,2952
2023-05-16T16:15:48.000Z,2932
2023-05-16T16:17:04.000Z,2948
2023-05-16T16:18:20.000Z,2932
2023-05-16T16:19:36.000Z,2912
2023-05-16T16:20:52.000Z,2872
2023-05-16T16:22:08.000Z,2772
2023-05-16T16:23:25.000Z,2628
2023-05-16T16:24:41.000Z,2592
2023-05-16T16:25:57.000Z,2624
2023-05-16T16:27:13.000Z,2788
2023-05-16T16:28:29.000Z,2832
2023-05-16T16:29:46.000Z,2896
2023-05-16T16:31:02.000Z,3820
2023-05-16T16:32:18.000Z,3504
2023-05-16T16:33:33.000Z,3012
2023-05-16T16:34:49.000Z,2904
2023-05-16T16:36:05.000Z,2876
2023-05-16T16:37:22.000Z,2828
2023-05-16T16:38:38.000Z,2700
2023-05-16T16:39:54.000Z,2568
2023-05-16T16:41:10.000Z,2508
2023-05-16T16:42:26.000Z,2504
2023-05-16T16:43:43.165Z,2480
2023-05-16T16:44:59.000Z,2352
2023-05-16T16:46:15.000Z,2200
2023-05-16T16:47:31.000Z,2036
2023-05-16T16:48:47.000Z,1836
2023-05-16T16:50:03.000Z,1640
2023-05-16T16:51:19.000Z,1376
2023-05-16T16:52:35.000Z,1132
2023-05-16T16:53:51.000Z,888
2023-05-16T16:55:07.000Z,668
2023-05-16T16:56:24.000Z,528
2023-05-16T16:57:40.000Z,436
2023-05-16T16:58:56.000Z,388
2023-05-16T17:00:12.000Z,372
2023-05-16T17:01:28.000Z,392
2023-05-16T17:02:45.000Z,432
2023-05-16T17:04:01.000Z,480
2023-05-16T17:05:17.000Z,552
2023-05-16T17:06:32.000Z,696